OOCL Hamburg — VRZK9 — position and weather

sailwx.info

Track history (hours):
 
Tides and Currents Weather Stations Pressure Air Temp Water Temp Dewpoint Dewpoint Depression Visibility Wind Speed Wind Dir Waves Ship Positions

OOCL Hamburg

Last reported at 2017-Aug-23 10:00 UTC. Time now 2017-Aug-23 10:04 UTC.
Position N 49°53' W 003°11'.

Length 323 m; beam 42.8 m; draft 14.5 m.

Type: Cargo ship. MMSI: 477702000.

Date/timePositionNaut miles runAvg speedWind from/ knotsBaromVisibWave heightAir tempDewpointWater temp
2017-Aug-23 10:00N 49°53' W 003°11'612.1
2017-Aug-23 09:30N 49°56' W 003°03'611.4
2017-Aug-23 09:00N 49°59' W 002°55'510.0
2017-Aug-23 08:30N 50°01' W 002°48'5 9.7
2017-Aug-23 08:00N 50°02' W 002°41'5 9.6
2017-Aug-23 07:30N 50°03' W 002°33'5 9.8
2017-Aug-23 07:00N 50°04' W 002°26'510.2
2017-Aug-23 06:30N 50°06' W 002°18'611.1
2017-Aug-23 06:00N 50°08' W 002°10'6866.1
2017-Aug-23 06:00N 50°06' W 002°00'3 6.9 330 / 151014.0 5.4 19.017.416.4
2017-Aug-23 05:30N 50°09' W 002°01'713.4
2017-Aug-23 04:58N 50°11' W 001°50'614.2
2017-Aug-23 04:31N 50°13' W 001°40'714.9
2017-Aug-23 04:01N 50°15' W 001°29'815.5
2017-Aug-23 03:30N 50°18' W 001°18'816.0
2017-Aug-23 03:01N 50°20' W 001°06'816.4
2017-Aug-23 02:30N 50°22' W 000°53'815.4
2017-Aug-23 02:00N 50°24' W 000°42'714.9
2017-Aug-23 01:30N 50°26' W 000°30'714.2
2017-Aug-23 01:00N 50°28' W 000°20'713.6
2017-Aug-23 00:30N 50°30' W 000°09'612.8
2017-Aug-23 00:00N 50°31' E 000°01'612.2
2017-Aug-22 23:30N 50°33' E 000°10'611.5
2017-Aug-22 23:00N 50°34' E 000°19'510.9
2017-Aug-22 22:30N 50°36' E 000°27'510.7
2017-Aug-22 22:00N 50°38' E 000°35'510.6
2017-Aug-22 21:30N 50°40' E 000°43'611.1
2017-Aug-22 21:00N 50°43' E 000°49'612.1
2017-Aug-22 20:30N 50°47' E 000°57'713.2
2017-Aug-22 20:00N 50°52' E 001°04'714.3
2017-Aug-22 19:30N 50°56' E 001°13'815.2
2017-Aug-22 19:00N 51°01' E 001°22'815.2
2017-Aug-22 18:30N 51°06' E 001°31'714.5
2017-Aug-22 18:00N 51°11' E 001°40'713.8
2017-Aug-22 17:30N 51°16' E 001°48'612.8
2017-Aug-22 17:00N 51°21' E 001°53'612.1
2017-Aug-22 16:30N 51°26' E 001°59'611.6
2017-Aug-22 16:00N 51°31' E 002°05'611.1
2017-Aug-22 15:30N 51°35' E 002°10'611.0
2017-Aug-22 15:00N 51°39' E 002°16'510.6
2017-Aug-22 14:30N 51°43' E 002°22'510.5
2017-Aug-22 14:00N 51°47' E 002°27'510.7
2017-Aug-22 13:30N 51°51' E 002°33'611.1
2017-Aug-22 13:00N 51°55' E 002°39'1011.8
2017-Aug-22 12:10N 52°03' E 002°49'412.7
2017-Aug-22 11:49N 52°06' E 002°54'413.1
2017-Aug-22 11:30N 52°09' E 002°59'612.7
2017-Aug-22 11:00N 52°14' E 003°05'713.8
2017-Aug-22 10:30N 52°20' E 003°11'814.7
2017-Aug-22 10:00N 52°26' E 003°18'715.1
2017-Aug-22 09:30N 52°32' E 003°24'815.1
2017-Aug-22 09:00N 52°38' E 003°32'715.0
2017-Aug-22 08:30N 52°44' E 003°40'714.9
2017-Aug-22 08:00N 52°50' E 003°48'714.3
2017-Aug-22 07:30N 52°55' E 003°56'713.9
2017-Aug-22 07:01N 52°60' E 004°04'713.8
2017-Aug-22 06:30N 53°04' E 004°13'713.4
2017-Aug-22 06:00N 53°09' E 004°21'612.2
2017-Aug-22 05:30N 53°13' E 004°28'612.5
2017-Aug-22 05:00N 53°19' E 004°32'612.7
2017-Aug-22 04:30N 53°25' E 004°36'612.4
2017-Aug-22 04:00N 53°30' E 004°43'713.7
2017-Aug-22 03:30N 53°33' E 004°53'714.6
2017-Aug-22 03:00N 53°35' E 005°05'815.4
2017-Aug-22 02:30N 53°38' E 005°17'815.5
2017-Aug-22 01:58N 53°40' E 005°30'715.5
2017-Aug-22 01:30N 53°43' E 005°42'815.3
2017-Aug-22 01:00N 53°46' E 005°54'815.0
2017-Aug-22 00:28N 53°48' E 006°07'5812.6
2017-Aug-21 19:53N 53°54' E 007°44'611.5
2017-Aug-21 19:23N 53°51' E 007°52'610.6
2017-Aug-21 18:51N 53°48' E 008°00'513.7
2017-Aug-21 18:30N 53°44' E 008°04'814.8
2017-Aug-21 18:00N 53°37' E 008°09'2 3.2
2017-Aug-21 17:30N 53°35' E 008°09'0 0.0
2017-Aug-21 17:00N 53°35' E 008°09'0 0.0
2017-Aug-21 16:30N 53°35' E 008°09'0 0.0
2017-Aug-21 15:57N 53°35' E 008°09'0 0.0
2017-Aug-21 15:30N 53°35' E 008°09'0 0.0
2017-Aug-21 15:00N 53°35' E 008°09'0 0.0
2017-Aug-21 14:27N 53°35' E 008°09'0 0.0
2017-Aug-21 14:00N 53°35' E 008°09'0 0.0
2017-Aug-21 13:30N 53°35' E 008°09'0 0.0
2017-Aug-21 13:00N 53°35' E 008°09'0 0.0
2017-Aug-21 12:30N 53°35' E 008°09'0 0.0
2017-Aug-21 12:00N 53°35' E 008°09'0 0.0
2017-Aug-21 11:30N 53°35' E 008°09'0 0.0
2017-Aug-21 11:00N 53°35' E 008°09'0 0.0
2017-Aug-21 10:30N 53°35' E 008°09'0 0.0
2017-Aug-21 10:00N 53°35' E 008°09'0 0.0
2017-Aug-21 09:30N 53°35' E 008°09'0 0.0
2017-Aug-21 09:00N 53°35' E 008°09'0 0.0
2017-Aug-21 08:30N 53°35' E 008°09'0 0.0
2017-Aug-21 07:57N 53°35' E 008°09'0 0.0
2017-Aug-21 07:30N 53°35' E 008°09'0 0.0
2017-Aug-21 07:00N 53°35' E 008°09'0 0.0
2017-Aug-21 06:30N 53°35' E 008°09'0 0.0
2017-Aug-21 06:00N 53°35' E 008°09'0 0.0
2017-Aug-21 05:30N 53°35' E 008°09'0 0.0
2017-Aug-21 05:00N 53°35' E 008°09'0 0.0
2017-Aug-21 04:30N 53°35' E 008°09'0 0.0
2017-Aug-21 04:00N 53°35' E 008°09'0 0.0
2017-Aug-21 03:27N 53°35' E 008°09'0 0.0
2017-Aug-21 03:00N 53°35' E 008°09'0 0.0
2017-Aug-21 02:30N 53°35' E 008°09'1 2.0
2017-Aug-21 02:00N 53°36' E 008°09'3 5.9
2017-Aug-21 01:30N 53°39' E 008°07'713.6
2017-Aug-21 01:00N 53°45' E 008°03'713.9
2017-Aug-21 00:31N 53°50' E 007°54'612.3
2017-Aug-21 00:00N 53°53' E 007°45'4 9.0
2017-Aug-20 23:30N 53°55' E 007°38'4 8.3
2017-Aug-20 23:00N 53°59' E 007°36'912.6
2017-Aug-20 22:17N 54°07' E 007°29'3516.0
2017-Aug-20 20:06N 54°40' E 007°09'416.2
2017-Aug-20 19:53N 54°44' E 007°08'716.3
2017-Aug-20 19:27N 54°51' E 007°07'716.2
2017-Aug-20 19:01N 54°58' E 007°05'816.1
2017-Aug-20 18:30N 55°06' E 007°04'816.0
2017-Aug-20 18:00N 55°14' E 007°02'917.5
2017-Aug-20 17:31N 55°23' E 007°05'917.2
2017-Aug-20 17:00N 55°31' E 007°07'816.9
2017-Aug-20 16:30N 55°39' E 007°11'1016.6
2017-Aug-20 15:56N 55°49' E 007°16'14314.4
2017-Aug-20 06:00N 57°42' E 009°54'613.3 230 / 251009.210.8 14.012.216.6
2017-Aug-20 05:32N 57°45' E 010°04'213.1
2017-Aug-20 05:25N 57°45' E 010°07'512.8
2017-Aug-20 05:00N 57°46' E 010°17'713.2
2017-Aug-20 04:30N 57°47' E 010°30'612.8
2017-Aug-20 03:59N 57°47' E 010°42'510.9
2017-Aug-20 03:30N 57°46' E 010°51'510.8
2017-Aug-20 03:01N 57°42' E 010°58'714.3
2017-Aug-20 02:30N 57°37' E 011°08'714.4
2017-Aug-20 02:00N 57°32' E 011°18'714.5
2017-Aug-20 01:30N 57°27' E 011°27'815.0
2017-Aug-20 01:01N 57°20' E 011°32'815.0
2017-Aug-20 00:28N 57°12' E 011°37'714.7
2017-Aug-19 23:58N 57°06' E 011°41'814.5
2017-Aug-19 23:24N 56°58' E 011°47'3013.9
2017-Aug-19 21:13N 56°28' E 011°36'516.0
2017-Aug-19 20:56N 56°24' E 011°31'716.0
2017-Aug-19 20:29N 56°18' E 011°24'815.9
2017-Aug-19 19:59N 56°11' E 011°17'715.0
2017-Aug-19 19:30N 56°06' E 011°10'815.4
2017-Aug-19 19:00N 55°59' E 011°02'815.1
2017-Aug-19 18:30N 55°53' E 010°54'714.3
2017-Aug-19 18:00N 55°46' E 010°49'814.8
2017-Aug-19 17:29N 55°39' E 010°47'715.4
2017-Aug-19 17:00N 55°32' E 010°52'815.3
2017-Aug-19 16:30N 55°26' E 010°59'714.6
2017-Aug-19 16:00N 55°19' E 011°03'713.9
2017-Aug-19 15:30N 55°12' E 011°05'714.2
2017-Aug-19 15:00N 55°05' E 010°59'1413.8
2017-Aug-19 14:00N 54°53' E 010°50'713.9
2017-Aug-19 13:31N 54°46' E 010°48'612.8
2017-Aug-19 13:01N 54°40' E 010°50'714.4
2017-Aug-19 12:31N 54°36' E 011°01'713.8
2017-Aug-19 12:00N 54°36' E 011°13'714.6
2017-Aug-19 11:30N 54°32' E 011°24'714.7
2017-Aug-19 11:00N 54°29' E 011°36'714.6
2017-Aug-19 10:31N 54°27' E 011°48'714.1
2017-Aug-19 09:59N 54°27' E 012°00'613.4
2017-Aug-19 09:30N 54°27' E 012°11'714.5
2017-Aug-19 09:00N 54°34' E 012°15'714.6
2017-Aug-19 08:30N 54°39' E 012°24'1414.8
2017-Aug-19 07:35N 54°46' E 012°44'2 6.6
2017-Aug-19 07:19N 54°47' E 012°47'1716.4
2017-Aug-19 06:17N 54°47' E 013°17'518.3
2017-Aug-19 06:00N 54°46' E 013°25'5642.7
2017-Aug-19 06:00N 54°42' E 013°30'612.4 270 / 181011.910.8 18.517.718.4
2017-Aug-19 05:30N 54°46' E 013°38'814.4
2017-Aug-19 04:56N 54°43' E 013°52'614.4
2017-Aug-19 04:30N 54°42' E 014°02'714.6
2017-Aug-19 04:00N 54°40' E 014°14'1114.8
2017-Aug-19 03:17N 54°38' E 014°33'414.5
2017-Aug-19 03:00N 54°39' E 014°40'714.8
2017-Aug-19 02:30N 54°40' E 014°52'714.8
2017-Aug-19 02:00N 54°41' E 015°05'714.6
2017-Aug-19 01:30N 54°42' E 015°17'814.3
2017-Aug-19 00:57N 54°43' E 015°31'814.8
2017-Aug-19 00:23N 54°44' E 015°45'1315.3
2017-Aug-18 23:32N 54°46' E 016°08'115.3
2017-Aug-18 23:26N 54°46' E 016°10'2115.2
2017-Aug-18 22:03N 54°50' E 016°46'115.2
2017-Aug-18 21:58N 54°50' E 016°48'2715.7
2017-Aug-18 20:15N 54°58' E 017°34'415.8
2017-Aug-18 19:58N 54°59' E 017°41'915.7
2017-Aug-18 19:22N 54°60' E 017°57'616.1
2017-Aug-18 19:00N 54°60' E 018°07'815.8
2017-Aug-18 18:30N 55°00' E 018°21'815.8
2017-Aug-18 18:00N 54°59' E 018°35'6457.1
2017-Aug-18 18:00N 54°54' E 018°42'4 8.2 090 / 101014.610.8 22.019.718.8
2017-Aug-18 17:30N 54°56' E 018°48'815.8
2017-Aug-18 17:00N 54°53' E 019°01'815.7
2017-Aug-18 16:30N 54°50' E 019°13'815.8
2017-Aug-18 16:00N 54°47' E 019°26'816.4
2017-Aug-18 15:30N 54°44' E 019°39'713.2
2017-Aug-18 15:00N 54°39' E 019°46'0 0.1
2017-Aug-18 14:29N 54°39' E 019°46'0 0.0
2017-Aug-18 13:23N 54°39' E 019°46'0 0.1
2017-Aug-18 12:59N 54°39' E 019°46'0 0.1
2017-Aug-18 12:29N 54°39' E 019°46'0 0.2
2017-Aug-18 11:56N 54°39' E 019°46'0 0.1
2017-Aug-18 11:29N 54°39' E 019°46'0 0.0
2017-Aug-18 10:59N 54°39' E 019°46'0 0.0
2017-Aug-18 10:29N 54°39' E 019°46'0 0.1
2017-Aug-18 09:59N 54°39' E 019°46'0 0.1
2017-Aug-18 09:29N 54°39' E 019°46'0 0.0
2017-Aug-18 08:59N 54°39' E 019°46'0 0.1
2017-Aug-18 08:29N 54°39' E 019°46'0 0.0
2017-Aug-18 07:59N 54°39' E 019°46'0 0.1
2017-Aug-18 07:23N 54°39' E 019°46'0 0.0
2017-Aug-18 06:59N 54°39' E 019°46'0 0.1
2017-Aug-18 06:29N 54°39' E 019°46'0 0.0
2017-Aug-18 05:59N 54°39' E 019°46'0 0.0
2017-Aug-18 05:26N 54°39' E 019°46'0 0.0
2017-Aug-18 04:59N 54°39' E 019°46'0 0.0
2017-Aug-18 04:29N 54°39' E 019°46'0 0.0
2017-Aug-18 03:59N 54°39' E 019°46'0 0.1
2017-Aug-18 03:29N 54°39' E 019°46'0 0.1
2017-Aug-18 02:59N 54°39' E 019°46'0 0.0
2017-Aug-18 02:29N 54°39' E 019°46'0 0.0
2017-Aug-18 01:59N 54°39' E 019°46'0 0.0
2017-Aug-18 01:29N 54°39' E 019°46'0 0.1
2017-Aug-18 00:47N 54°39' E 019°46'0 0.0
2017-Aug-18 00:29N 54°39' E 019°46'0 0.0
2017-Aug-17 23:59N 54°39' E 019°46'0 0.0
2017-Aug-17 23:26N 54°39' E 019°46'0 0.0
2017-Aug-17 22:59N 54°39' E 019°46'0 0.0
2017-Aug-17 22:20N 54°39' E 019°46'0 0.0
2017-Aug-17 21:59N 54°39' E 019°46'0 0.0
2017-Aug-17 21:29N 54°39' E 019°46'0 0.0
2017-Aug-17 20:59N 54°39' E 019°46'0 0.0
2017-Aug-17 20:29N 54°39' E 019°46'0 0.0
2017-Aug-17 19:53N 54°39' E 019°46'0 0.1
2017-Aug-17 19:05N 54°39' E 019°46'0 0.2
2017-Aug-17 18:56N 54°39' E 019°46'0 1.0
2017-Aug-17 18:30N 54°39' E 019°45'3 5.7
2017-Aug-17 18:00N 54°41' E 019°43'713.6
2017-Aug-17 17:31N 54°45' E 019°32'1020.6
2017-Aug-17 17:01N 54°40' E 019°16'1019.8
2017-Aug-17 16:31N 54°33' E 019°04'918.0
2017-Aug-17 16:01N 54°26' E 018°54'612.7
2017-Aug-17 15:30N 54°24' E 018°44'1 2.2
2017-Aug-17 14:59N 54°23' E 018°43'0 0.0
2017-Aug-17 14:29N 54°23' E 018°43'0 0.0
2017-Aug-17 13:59N 54°23' E 018°43'0 0.0
2017-Aug-17 13:29N 54°23' E 018°43'0 0.0
2017-Aug-17 12:59N 54°23' E 018°43'0 0.0
2017-Aug-17 12:29N 54°23' E 018°43'0 0.0
2017-Aug-17 11:56N 54°23' E 018°43'0 0.0
2017-Aug-17 11:29N 54°23' E 018°43'0 0.0
2017-Aug-17 10:59N 54°23' E 018°43'0 0.0
2017-Aug-17 10:29N 54°23' E 018°43'0 0.0
2017-Aug-17 09:59N 54°23' E 018°43'0 0.0
2017-Aug-17 09:29N 54°23' E 018°43'0 0.0
2017-Aug-17 08:59N 54°23' E 018°43'0 0.0
2017-Aug-17 08:29N 54°23' E 018°43'0 0.0
2017-Aug-17 07:59N 54°23' E 018°43'0 0.0
2017-Aug-17 07:29N 54°23' E 018°43'0 0.0
2017-Aug-17 06:59N 54°23' E 018°43'0 0.0
2017-Aug-17 06:29N 54°23' E 018°43'0 0.0
2017-Aug-17 05:59N 54°23' E 018°43'0 0.0
2017-Aug-17 05:29N 54°23' E 018°43'0 0.0
2017-Aug-17 04:59N 54°23' E 018°43'0 0.0
2017-Aug-17 04:29N 54°23' E 018°43'0 0.0
2017-Aug-17 03:59N 54°23' E 018°43'0 0.0
2017-Aug-17 03:29N 54°23' E 018°43'0 0.0
2017-Aug-17 02:59N 54°23' E 018°43'0 0.0
2017-Aug-17 02:29N 54°23' E 018°43'0 0.0
2017-Aug-17 01:59N 54°23' E 018°43'0 0.0
2017-Aug-17 01:29N 54°23' E 018°43'0 0.0
2017-Aug-17 00:59N 54°23' E 018°43'0 0.0
2017-Aug-17 00:29N 54°23' E 018°43'0 0.0
2017-Aug-16 23:59N 54°23' E 018°43'0 0.0
2017-Aug-16 23:29N 54°23' E 018°43'0 0.0
2017-Aug-16 22:59N 54°23' E 018°43'0 0.0
2017-Aug-16 22:29N 54°23' E 018°43'0 0.0
2017-Aug-16 21:59N 54°23' E 018°43'0 0.0
2017-Aug-16 21:29N 54°23' E 018°43'0 0.0
2017-Aug-16 20:59N 54°23' E 018°43'0 0.0
2017-Aug-16 20:29N 54°23' E 018°43'0 0.0
2017-Aug-16 19:59N 54°23' E 018°43'0 0.0
2017-Aug-16 19:29N 54°23' E 018°43'0 0.0
2017-Aug-16 18:59N 54°23' E 018°43'0 0.0
2017-Aug-16 18:29N 54°23' E 018°43'0 0.0
2017-Aug-16 17:59N 54°23' E 018°43'0 0.0
2017-Aug-16 17:29N 54°23' E 018°43'0 0.0
2017-Aug-16 16:59N 54°23' E 018°43'0 0.0
2017-Aug-16 16:29N 54°23' E 018°43'0 0.0
2017-Aug-16 15:59N 54°23' E 018°43'0 0.0
2017-Aug-16 15:29N 54°23' E 018°43'0 0.0
2017-Aug-16 14:59N 54°23' E 018°43'0 0.0
2017-Aug-16 14:29N 54°23' E 018°43'0 0.0
2017-Aug-16 13:59N 54°23' E 018°43'0 0.0
2017-Aug-16 13:29N 54°23' E 018°43'0 0.0
2017-Aug-16 12:56N 54°23' E 018°43'0 0.0
2017-Aug-16 12:29N 54°23' E 018°43'0 0.0
2017-Aug-16 11:59N 54°23' E 018°43'0 0.0
2017-Aug-16 11:29N 54°23' E 018°43'0 0.0
2017-Aug-16 10:59N 54°23' E 018°43'0 0.0
2017-Aug-16 10:29N 54°23' E 018°43'0 0.0
2017-Aug-16 09:59N 54°23' E 018°43'0 0.0
2017-Aug-16 09:29N 54°23' E 018°43'0 0.0
2017-Aug-16 08:59N 54°23' E 018°43'0 0.0
2017-Aug-16 08:29N 54°23' E 018°43'0 0.0
2017-Aug-16 07:59N 54°23' E 018°43'0 0.0
2017-Aug-16 07:29N 54°23' E 018°43'0 0.0
2017-Aug-16 06:59N 54°23' E 018°43'0 0.0
2017-Aug-16 06:29N 54°23' E 018°43'0 0.0
2017-Aug-16 05:59N 54°23' E 018°43'0 0.0
2017-Aug-16 05:29N 54°23' E 018°43'0 0.0
2017-Aug-16 04:59N 54°23' E 018°43'0 0.0
2017-Aug-16 04:29N 54°23' E 018°43'0 0.0
2017-Aug-16 03:59N 54°23' E 018°43'0 0.0
2017-Aug-16 03:29N 54°23' E 018°43'0 0.0
2017-Aug-16 02:59N 54°23' E 018°43'0 0.0
2017-Aug-16 02:29N 54°23' E 018°43'0 0.0
2017-Aug-16 01:59N 54°23' E 018°43'0 0.0
2017-Aug-16 01:29N 54°23' E 018°43'0 0.0
2017-Aug-16 00:59N 54°23' E 018°43'0 0.0
2017-Aug-16 00:29N 54°23' E 018°43'0 0.0
2017-Aug-15 23:59N 54°23' E 018°43'0 0.0
2017-Aug-15 23:29N 54°23' E 018°43'0 0.0
2017-Aug-15 22:59N 54°23' E 018°43'0 0.0
2017-Aug-15 22:29N 54°23' E 018°43'0 0.0
2017-Aug-15 21:59N 54°23' E 018°43'0 0.0
2017-Aug-15 21:29N 54°23' E 018°43'0 0.0
2017-Aug-15 20:59N 54°23' E 018°43'0 0.0
2017-Aug-15 20:29N 54°23' E 018°43'0 0.0
2017-Aug-15 19:59N 54°23' E 018°43'0 0.0
2017-Aug-15 19:29N 54°23' E 018°43'0 0.0
2017-Aug-15 18:59N 54°23' E 018°43'0 0.0
2017-Aug-15 18:29N 54°23' E 018°43'0 0.5
2017-Aug-15 18:00N 54°23' E 018°43'2 3.7
2017-Aug-15 17:30N 54°24' E 018°46'5 9.3
2017-Aug-15 17:00N 54°26' E 018°53'4 8.4
2017-Aug-15 16:30N 54°29' E 018°58'611.9
2017-Aug-15 16:00N 54°34' E 019°03'713.2
2017-Aug-15 15:30N 54°41' E 019°02'714.0
2017-Aug-15 15:00N 54°47' E 018°55'714.1
2017-Aug-15 14:30N 54°51' E 018°46'714.0
2017-Aug-15 14:00N 54°56' E 018°36'714.0
2017-Aug-15 13:30N 54°57' E 018°24'714.4
2017-Aug-15 13:00N 54°56' E 018°12'714.5
2017-Aug-15 12:30N 54°55' E 017°60'714.3
2017-Aug-15 12:00N 54°54' E 017°47'9515.8
2017-Aug-15 06:00N 54°36' E 015°06'633.3 190 / 91023.510.8 21.019.417.6
2017-Aug-15 05:49N 54°40' E 015°14'514.4
2017-Aug-15 05:30N 54°39' E 015°06'1214.4
2017-Aug-15 04:40N 54°38' E 014°46'214.6
2017-Aug-15 04:31N 54°37' E 014°42'714.7
2017-Aug-15 04:01N 54°36' E 014°29'714.3
2017-Aug-15 03:30N 54°37' E 014°17'714.6
2017-Aug-15 03:00N 54°39' E 014°05'815.2
2017-Aug-15 02:30N 54°41' E 013°52'714.8
2017-Aug-15 02:00N 54°44' E 013°40'814.9
2017-Aug-15 01:30N 54°45' E 013°27'715.0
2017-Aug-15 01:00N 54°46' E 013°14'714.7
2017-Aug-15 00:31N 54°46' E 013°02'714.6
2017-Aug-15 00:01N 54°46' E 012°49'612.4
2017-Aug-14 23:30N 54°44' E 012°39'714.0
2017-Aug-14 23:00N 54°41' E 012°28'815.1
2017-Aug-14 22:30N 54°36' E 012°18'815.3
2017-Aug-14 22:00N 54°29' E 012°13'713.2
2017-Aug-14 21:30N 54°25' E 012°04'714.8
2017-Aug-14 21:00N 54°25' E 011°52'714.3
2017-Aug-14 20:30N 54°27' E 011°40'714.8
2017-Aug-14 20:00N 54°30' E 011°28'714.6
2017-Aug-14 19:30N 54°33' E 011°17'714.3
2017-Aug-14 19:00N 54°35' E 011°05'714.7
2017-Aug-14 18:30N 54°38' E 010°53'713.4
2017-Aug-14 18:00N 54°43' E 010°47'815.1
2017-Aug-14 17:30N 54°51' E 010°50'714.6
2017-Aug-14 17:00N 54°57' E 010°55'714.4
2017-Aug-14 16:30N 55°04' E 010°60'713.4
2017-Aug-14 16:00N 55°11' E 011°02'612.6
2017-Aug-14 15:30N 55°17' E 011°03'815.0
2017-Aug-14 15:00N 55°24' E 010°59'815.3
2017-Aug-14 14:30N 55°31' E 010°52'815.4
2017-Aug-14 13:59N 55°38' E 010°47'815.4
2017-Aug-14 13:29N 55°46' E 010°48'715.2
2017-Aug-14 13:00N 55°53' E 010°49'714.5
2017-Aug-14 12:30N 55°57' E 010°60'814.9
2017-Aug-14 11:59N 56°04' E 011°07'714.8
2017-Aug-14 11:30N 56°10' E 011°14'917.0
2017-Aug-14 10:59N 56°17' E 011°22'1016.4
2017-Aug-14 10:25N 56°26' E 011°30'1117.0
2017-Aug-14 09:48N 56°35' E 011°40'716.6
2017-Aug-14 09:22N 56°41' E 011°46'2515.9
2017-Aug-14 07:48N 57°05' E 011°38'617.0
2017-Aug-14 07:29N 57°10' E 011°34'816.8
2017-Aug-14 07:00N 57°18' E 011°30'917.1
2017-Aug-14 06:30N 57°26' E 011°24'917.1
2017-Aug-14 06:00N 57°32' E 011°13'917.4
2017-Aug-14 05:30N 57°38' E 011°02'917.7
2017-Aug-14 05:00N 57°44' E 010°50'917.2
2017-Aug-14 04:29N 57°47' E 010°34'918.4
2017-Aug-14 04:00N 57°46' E 010°18'917.9
2017-Aug-14 03:30N 57°45' E 010°01'917.5
2017-Aug-14 03:00N 57°43' E 009°45'3017.1
2017-Aug-14 01:15N 57°31' E 008°54'417.3
2017-Aug-14 01:00N 57°29' E 008°48'917.3
2017-Aug-14 00:30N 57°24' E 008°34'917.4
2017-Aug-14 00:00N 57°19' E 008°21'917.3
2017-Aug-13 23:29N 57°11' E 008°13'9417.4
2017-Aug-13 18:05N 55°49' E 006°49'117.2
2017-Aug-13 18:00N 55°48' E 006°48'1200134983.8
2017-Aug-13 18:00N 35°48' E 006°48'11901827.6 320 / 151024.027.0 20.019.217.2
2017-Aug-13 17:20N 55°38' E 006°38'717.2
2017-Aug-13 16:55N 55°32' E 006°32'817.1
2017-Aug-13 16:27N 55°24' E 006°26'  
Track history (hours):
 
Tides and Currents Weather Stations Pressure Air Temp Water Temp Dewpoint Dewpoint Depression Visibility Wind Speed Wind Dir Waves Ship Positions

OOCL Hamburg

Last reported at 2017-Aug-23 10:00 UTC. Time now 2017-Aug-23 10:04 UTC.
Position N 49°53' W 003°11'.

Length 323 m; beam 42.8 m; draft 14.5 m.

Type: Cargo ship. MMSI: 477702000.

Date/timePositionNaut miles runAvg speedWind from/ knotsBaromVisibWave heightAir tempDewpointWater temp
2017-Aug-23 10:00N 49°53' W 003°11'612.1
2017-Aug-23 09:30N 49°56' W 003°03'611.4
2017-Aug-23 09:00N 49°59' W 002°55'510.0
2017-Aug-23 08:30N 50°01' W 002°48'5 9.7
2017-Aug-23 08:00N 50°02' W 002°41'5 9.6
2017-Aug-23 07:30N 50°03' W 002°33'5 9.8
2017-Aug-23 07:00N 50°04' W 002°26'510.2
2017-Aug-23 06:30N 50°06' W 002°18'611.1
2017-Aug-23 06:00N 50°08' W 002°10'6866.1
2017-Aug-23 06:00N 50°06' W 002°00'3 6.9 330 / 151014.0 5.4 19.017.416.4
2017-Aug-23 05:30N 50°09' W 002°01'713.4
2017-Aug-23 04:58N 50°11' W 001°50'614.2
2017-Aug-23 04:31N 50°13' W 001°40'714.9
2017-Aug-23 04:01N 50°15' W 001°29'815.5
2017-Aug-23 03:30N 50°18' W 001°18'816.0
2017-Aug-23 03:01N 50°20' W 001°06'816.4
2017-Aug-23 02:30N 50°22' W 000°53'815.4
2017-Aug-23 02:00N 50°24' W 000°42'714.9
2017-Aug-23 01:30N 50°26' W 000°30'714.2
2017-Aug-23 01:00N 50°28' W 000°20'713.6
2017-Aug-23 00:30N 50°30' W 000°09'612.8
2017-Aug-23 00:00N 50°31' E 000°01'612.2
2017-Aug-22 23:30N 50°33' E 000°10'611.5
2017-Aug-22 23:00N 50°34' E 000°19'510.9
2017-Aug-22 22:30N 50°36' E 000°27'510.7
2017-Aug-22 22:00N 50°38' E 000°35'510.6
2017-Aug-22 21:30N 50°40' E 000°43'611.1
2017-Aug-22 21:00N 50°43' E 000°49'612.1
2017-Aug-22 20:30N 50°47' E 000°57'713.2
2017-Aug-22 20:00N 50°52' E 001°04'714.3
2017-Aug-22 19:30N 50°56' E 001°13'815.2
2017-Aug-22 19:00N 51°01' E 001°22'815.2
2017-Aug-22 18:30N 51°06' E 001°31'714.5
2017-Aug-22 18:00N 51°11' E 001°40'713.8
2017-Aug-22 17:30N 51°16' E 001°48'612.8
2017-Aug-22 17:00N 51°21' E 001°53'612.1
2017-Aug-22 16:30N 51°26' E 001°59'611.6
2017-Aug-22 16:00N 51°31' E 002°05'611.1
2017-Aug-22 15:30N 51°35' E 002°10'611.0
2017-Aug-22 15:00N 51°39' E 002°16'510.6
2017-Aug-22 14:30N 51°43' E 002°22'510.5
2017-Aug-22 14:00N 51°47' E 002°27'510.7
2017-Aug-22 13:30N 51°51' E 002°33'611.1
2017-Aug-22 13:00N 51°55' E 002°39'1011.8
2017-Aug-22 12:10N 52°03' E 002°49'412.7
2017-Aug-22 11:49N 52°06' E 002°54'413.1
2017-Aug-22 11:30N 52°09' E 002°59'612.7
2017-Aug-22 11:00N 52°14' E 003°05'713.8
2017-Aug-22 10:30N 52°20' E 003°11'814.7
2017-Aug-22 10:00N 52°26' E 003°18'715.1
2017-Aug-22 09:30N 52°32' E 003°24'815.1
2017-Aug-22 09:00N 52°38' E 003°32'715.0
2017-Aug-22 08:30N 52°44' E 003°40'714.9
2017-Aug-22 08:00N 52°50' E 003°48'714.3
2017-Aug-22 07:30N 52°55' E 003°56'713.9
2017-Aug-22 07:01N 52°60' E 004°04'713.8
2017-Aug-22 06:30N 53°04' E 004°13'713.4
2017-Aug-22 06:00N 53°09' E 004°21'612.2
2017-Aug-22 05:30N 53°13' E 004°28'612.5
2017-Aug-22 05:00N 53°19' E 004°32'612.7
2017-Aug-22 04:30N 53°25' E 004°36'612.4
2017-Aug-22 04:00N 53°30' E 004°43'713.7
2017-Aug-22 03:30N 53°33' E 004°53'714.6
2017-Aug-22 03:00N 53°35' E 005°05'815.4
2017-Aug-22 02:30N 53°38' E 005°17'815.5
2017-Aug-22 01:58N 53°40' E 005°30'715.5
2017-Aug-22 01:30N 53°43' E 005°42'815.3
2017-Aug-22 01:00N 53°46' E 005°54'815.0
2017-Aug-22 00:28N 53°48' E 006°07'5812.6
2017-Aug-21 19:53N 53°54' E 007°44'611.5
2017-Aug-21 19:23N 53°51' E 007°52'610.6
2017-Aug-21 18:51N 53°48' E 008°00'513.7
2017-Aug-21 18:30N 53°44' E 008°04'814.8
2017-Aug-21 18:00N 53°37' E 008°09'2 3.2
2017-Aug-21 17:30N 53°35' E 008°09'0 0.0
2017-Aug-21 17:00N 53°35' E 008°09'0 0.0
2017-Aug-21 16:30N 53°35' E 008°09'0 0.0
2017-Aug-21 15:57N 53°35' E 008°09'0 0.0
2017-Aug-21 15:30N 53°35' E 008°09'0 0.0
2017-Aug-21 15:00N 53°35' E 008°09'0 0.0
2017-Aug-21 14:27N 53°35' E 008°09'0 0.0
2017-Aug-21 14:00N 53°35' E 008°09'0 0.0
2017-Aug-21 13:30N 53°35' E 008°09'0 0.0
2017-Aug-21 13:00N 53°35' E 008°09'0 0.0
2017-Aug-21 12:30N 53°35' E 008°09'0 0.0
2017-Aug-21 12:00N 53°35' E 008°09'0 0.0
2017-Aug-21 11:30N 53°35' E 008°09'0 0.0
2017-Aug-21 11:00N 53°35' E 008°09'0 0.0
2017-Aug-21 10:30N 53°35' E 008°09'0 0.0
2017-Aug-21 10:00N 53°35' E 008°09'0 0.0
2017-Aug-21 09:30N 53°35' E 008°09'0 0.0
2017-Aug-21 09:00N 53°35' E 008°09'0 0.0
2017-Aug-21 08:30N 53°35' E 008°09'0 0.0
2017-Aug-21 07:57N 53°35' E 008°09'0 0.0
2017-Aug-21 07:30N 53°35' E 008°09'0 0.0
2017-Aug-21 07:00N 53°35' E 008°09'0 0.0
2017-Aug-21 06:30N 53°35' E 008°09'0 0.0
2017-Aug-21 06:00N 53°35' E 008°09'0 0.0
2017-Aug-21 05:30N 53°35' E 008°09'0 0.0
2017-Aug-21 05:00N 53°35' E 008°09'0 0.0
2017-Aug-21 04:30N 53°35' E 008°09'0 0.0
2017-Aug-21 04:00N 53°35' E 008°09'0 0.0
2017-Aug-21 03:27N 53°35' E 008°09'0 0.0
2017-Aug-21 03:00N 53°35' E 008°09'0 0.0
2017-Aug-21 02:30N 53°35' E 008°09'1 2.0
2017-Aug-21 02:00N 53°36' E 008°09'3 5.9
2017-Aug-21 01:30N 53°39' E 008°07'713.6
2017-Aug-21 01:00N 53°45' E 008°03'713.9
2017-Aug-21 00:31N 53°50' E 007°54'612.3
2017-Aug-21 00:00N 53°53' E 007°45'4 9.0
2017-Aug-20 23:30N 53°55' E 007°38'4 8.3
2017-Aug-20 23:00N 53°59' E 007°36'912.6
2017-Aug-20 22:17N 54°07' E 007°29'3516.0
2017-Aug-20 20:06N 54°40' E 007°09'416.2
2017-Aug-20 19:53N 54°44' E 007°08'716.3
2017-Aug-20 19:27N 54°51' E 007°07'716.2
2017-Aug-20 19:01N 54°58' E 007°05'816.1
2017-Aug-20 18:30N 55°06' E 007°04'816.0
2017-Aug-20 18:00N 55°14' E 007°02'917.5
2017-Aug-20 17:31N 55°23' E 007°05'917.2
2017-Aug-20 17:00N 55°31' E 007°07'816.9
2017-Aug-20 16:30N 55°39' E 007°11'1016.6
2017-Aug-20 15:56N 55°49' E 007°16'14314.4
2017-Aug-20 06:00N 57°42' E 009°54'613.3 230 / 251009.210.8 14.012.216.6
2017-Aug-20 05:32N 57°45' E 010°04'213.1
2017-Aug-20 05:25N 57°45' E 010°07'512.8
2017-Aug-20 05:00N 57°46' E 010°17'713.2
2017-Aug-20 04:30N 57°47' E 010°30'612.8
2017-Aug-20 03:59N 57°47' E 010°42'510.9
2017-Aug-20 03:30N 57°46' E 010°51'510.8
2017-Aug-20 03:01N 57°42' E 010°58'714.3
2017-Aug-20 02:30N 57°37' E 011°08'714.4
2017-Aug-20 02:00N 57°32' E 011°18'714.5
2017-Aug-20 01:30N 57°27' E 011°27'815.0
2017-Aug-20 01:01N 57°20' E 011°32'815.0
2017-Aug-20 00:28N 57°12' E 011°37'714.7
2017-Aug-19 23:58N 57°06' E 011°41'814.5
2017-Aug-19 23:24N 56°58' E 011°47'3013.9
2017-Aug-19 21:13N 56°28' E 011°36'516.0
2017-Aug-19 20:56N 56°24' E 011°31'716.0
2017-Aug-19 20:29N 56°18' E 011°24'815.9
2017-Aug-19 19:59N 56°11' E 011°17'715.0
2017-Aug-19 19:30N 56°06' E 011°10'815.4
2017-Aug-19 19:00N 55°59' E 011°02'815.1
2017-Aug-19 18:30N 55°53' E 010°54'714.3
2017-Aug-19 18:00N 55°46' E 010°49'814.8
2017-Aug-19 17:29N 55°39' E 010°47'715.4
2017-Aug-19 17:00N 55°32' E 010°52'815.3
2017-Aug-19 16:30N 55°26' E 010°59'714.6
2017-Aug-19 16:00N 55°19' E 011°03'713.9
2017-Aug-19 15:30N 55°12' E 011°05'714.2
2017-Aug-19 15:00N 55°05' E 010°59'1413.8
2017-Aug-19 14:00N 54°53' E 010°50'713.9
2017-Aug-19 13:31N 54°46' E 010°48'612.8
2017-Aug-19 13:01N 54°40' E 010°50'714.4
2017-Aug-19 12:31N 54°36' E 011°01'713.8
2017-Aug-19 12:00N 54°36' E 011°13'714.6
2017-Aug-19 11:30N 54°32' E 011°24'714.7
2017-Aug-19 11:00N 54°29' E 011°36'714.6
2017-Aug-19 10:31N 54°27' E 011°48'714.1
2017-Aug-19 09:59N 54°27' E 012°00'613.4
2017-Aug-19 09:30N 54°27' E 012°11'714.5
2017-Aug-19 09:00N 54°34' E 012°15'714.6
2017-Aug-19 08:30N 54°39' E 012°24'1414.8
2017-Aug-19 07:35N 54°46' E 012°44'2 6.6
2017-Aug-19 07:19N 54°47' E 012°47'1716.4
2017-Aug-19 06:17N 54°47' E 013°17'518.3
2017-Aug-19 06:00N 54°46' E 013°25'5642.7
2017-Aug-19 06:00N 54°42' E 013°30'612.4 270 / 181011.910.8 18.517.718.4
2017-Aug-19 05:30N 54°46' E 013°38'814.4
2017-Aug-19 04:56N 54°43' E 013°52'614.4
2017-Aug-19 04:30N 54°42' E 014°02'714.6
2017-Aug-19 04:00N 54°40' E 014°14'1114.8
2017-Aug-19 03:17N 54°38' E 014°33'414.5
2017-Aug-19 03:00N 54°39' E 014°40'714.8
2017-Aug-19 02:30N 54°40' E 014°52'714.8
2017-Aug-19 02:00N 54°41' E 015°05'714.6
2017-Aug-19 01:30N 54°42' E 015°17'814.3
2017-Aug-19 00:57N 54°43' E 015°31'814.8
2017-Aug-19 00:23N 54°44' E 015°45'1315.3
2017-Aug-18 23:32N 54°46' E 016°08'115.3
2017-Aug-18 23:26N 54°46' E 016°10'2115.2
2017-Aug-18 22:03N 54°50' E 016°46'115.2
2017-Aug-18 21:58N 54°50' E 016°48'2715.7
2017-Aug-18 20:15N 54°58' E 017°34'415.8
2017-Aug-18 19:58N 54°59' E 017°41'915.7
2017-Aug-18 19:22N 54°60' E 017°57'616.1
2017-Aug-18 19:00N 54°60' E 018°07'815.8
2017-Aug-18 18:30N 55°00' E 018°21'815.8
2017-Aug-18 18:00N 54°59' E 018°35'6457.1
2017-Aug-18 18:00N 54°54' E 018°42'4 8.2 090 / 101014.610.8 22.019.718.8
2017-Aug-18 17:30N 54°56' E 018°48'815.8
2017-Aug-18 17:00N 54°53' E 019°01'815.7
2017-Aug-18 16:30N 54°50' E 019°13'815.8
2017-Aug-18 16:00N 54°47' E 019°26'816.4
2017-Aug-18 15:30N 54°44' E 019°39'713.2
2017-Aug-18 15:00N 54°39' E 019°46'0 0.1
2017-Aug-18 14:29N 54°39' E 019°46'0 0.0
2017-Aug-18 13:23N 54°39' E 019°46'0 0.1
2017-Aug-18 12:59N 54°39' E 019°46'0 0.1
2017-Aug-18 12:29N 54°39' E 019°46'0 0.2
2017-Aug-18 11:56N 54°39' E 019°46'0 0.1
2017-Aug-18 11:29N 54°39' E 019°46'0 0.0
2017-Aug-18 10:59N 54°39' E 019°46'0 0.0
2017-Aug-18 10:29N 54°39' E 019°46'0 0.1
2017-Aug-18 09:59N 54°39' E 019°46'0 0.1
2017-Aug-18 09:29N 54°39' E 019°46'0 0.0
2017-Aug-18 08:59N 54°39' E 019°46'0 0.1
2017-Aug-18 08:29N 54°39' E 019°46'0 0.0
2017-Aug-18 07:59N 54°39' E 019°46'0 0.1
2017-Aug-18 07:23N 54°39' E 019°46'0 0.0
2017-Aug-18 06:59N 54°39' E 019°46'0 0.1
2017-Aug-18 06:29N 54°39' E 019°46'0 0.0
2017-Aug-18 05:59N 54°39' E 019°46'0 0.0
2017-Aug-18 05:26N 54°39' E 019°46'0 0.0
2017-Aug-18 04:59N 54°39' E 019°46'0 0.0
2017-Aug-18 04:29N 54°39' E 019°46'0 0.0
2017-Aug-18 03:59N 54°39' E 019°46'0 0.1
2017-Aug-18 03:29N 54°39' E 019°46'0 0.1
2017-Aug-18 02:59N 54°39' E 019°46'0 0.0
2017-Aug-18 02:29N 54°39' E 019°46'0 0.0
2017-Aug-18 01:59N 54°39' E 019°46'0 0.0
2017-Aug-18 01:29N 54°39' E 019°46'0 0.1
2017-Aug-18 00:47N 54°39' E 019°46'0 0.0
2017-Aug-18 00:29N 54°39' E 019°46'0 0.0
2017-Aug-17 23:59N 54°39' E 019°46'0 0.0
2017-Aug-17 23:26N 54°39' E 019°46'0 0.0
2017-Aug-17 22:59N 54°39' E 019°46'0 0.0
2017-Aug-17 22:20N 54°39' E 019°46'0 0.0
2017-Aug-17 21:59N 54°39' E 019°46'0 0.0
2017-Aug-17 21:29N 54°39' E 019°46'0 0.0
2017-Aug-17 20:59N 54°39' E 019°46'0 0.0
2017-Aug-17 20:29N 54°39' E 019°46'0 0.0
2017-Aug-17 19:53N 54°39' E 019°46'0 0.1
2017-Aug-17 19:05N 54°39' E 019°46'0 0.2
2017-Aug-17 18:56N 54°39' E 019°46'0 1.0
2017-Aug-17 18:30N 54°39' E 019°45'3 5.7
2017-Aug-17 18:00N 54°41' E 019°43'713.6
2017-Aug-17 17:31N 54°45' E 019°32'1020.6
2017-Aug-17 17:01N 54°40' E 019°16'1019.8
2017-Aug-17 16:31N 54°33' E 019°04'918.0
2017-Aug-17 16:01N 54°26' E 018°54'612.7
2017-Aug-17 15:30N 54°24' E 018°44'1 2.2
2017-Aug-17 14:59N 54°23' E 018°43'0 0.0
2017-Aug-17 14:29N 54°23' E 018°43'0 0.0
2017-Aug-17 13:59N 54°23' E 018°43'0 0.0
2017-Aug-17 13:29N 54°23' E 018°43'0 0.0
2017-Aug-17 12:59N 54°23' E 018°43'0 0.0
2017-Aug-17 12:29N 54°23' E 018°43'0 0.0
2017-Aug-17 11:56N 54°23' E 018°43'0 0.0
2017-Aug-17 11:29N 54°23' E 018°43'0 0.0
2017-Aug-17 10:59N 54°23' E 018°43'0 0.0
2017-Aug-17 10:29N 54°23' E 018°43'0 0.0
2017-Aug-17 09:59N 54°23' E 018°43'0 0.0
2017-Aug-17 09:29N 54°23' E 018°43'0 0.0
2017-Aug-17 08:59N 54°23' E 018°43'0 0.0
2017-Aug-17 08:29N 54°23' E 018°43'0 0.0
2017-Aug-17 07:59N 54°23' E 018°43'0 0.0
2017-Aug-17 07:29N 54°23' E 018°43'0 0.0
2017-Aug-17 06:59N 54°23' E 018°43'0 0.0
2017-Aug-17 06:29N 54°23' E 018°43'0 0.0
2017-Aug-17 05:59N 54°23' E 018°43'0 0.0
2017-Aug-17 05:29N 54°23' E 018°43'0 0.0
2017-Aug-17 04:59N 54°23' E 018°43'0 0.0
2017-Aug-17 04:29N 54°23' E 018°43'0 0.0
2017-Aug-17 03:59N 54°23' E 018°43'0 0.0
2017-Aug-17 03:29N 54°23' E 018°43'0 0.0
2017-Aug-17 02:59N 54°23' E 018°43'0 0.0
2017-Aug-17 02:29N 54°23' E 018°43'0 0.0
2017-Aug-17 01:59N 54°23' E 018°43'0 0.0
2017-Aug-17 01:29N 54°23' E 018°43'0 0.0
2017-Aug-17 00:59N 54°23' E 018°43'0 0.0
2017-Aug-17 00:29N 54°23' E 018°43'0 0.0
2017-Aug-16 23:59N 54°23' E 018°43'0 0.0
2017-Aug-16 23:29N 54°23' E 018°43'0 0.0
2017-Aug-16 22:59N 54°23' E 018°43'0 0.0
2017-Aug-16 22:29N 54°23' E 018°43'0 0.0
2017-Aug-16 21:59N 54°23' E 018°43'0 0.0
2017-Aug-16 21:29N 54°23' E 018°43'0 0.0
2017-Aug-16 20:59N 54°23' E 018°43'0 0.0
2017-Aug-16 20:29N 54°23' E 018°43'0 0.0
2017-Aug-16 19:59N 54°23' E 018°43'0 0.0
2017-Aug-16 19:29N 54°23' E 018°43'0 0.0
2017-Aug-16 18:59N 54°23' E 018°43'0 0.0
2017-Aug-16 18:29N 54°23' E 018°43'0 0.0
2017-Aug-16 17:59N 54°23' E 018°43'0 0.0
2017-Aug-16 17:29N 54°23' E 018°43'0 0.0
2017-Aug-16 16:59N 54°23' E 018°43'0 0.0
2017-Aug-16 16:29N 54°23' E 018°43'0 0.0
2017-Aug-16 15:59N 54°23' E 018°43'0 0.0
2017-Aug-16 15:29N 54°23' E 018°43'0 0.0
2017-Aug-16 14:59N 54°23' E 018°43'0 0.0
2017-Aug-16 14:29N 54°23' E 018°43'0 0.0
2017-Aug-16 13:59N 54°23' E 018°43'0 0.0
2017-Aug-16 13:29N 54°23' E 018°43'0 0.0
2017-Aug-16 12:56N 54°23' E 018°43'0 0.0
2017-Aug-16 12:29N 54°23' E 018°43'0 0.0
2017-Aug-16 11:59N 54°23' E 018°43'0 0.0
2017-Aug-16 11:29N 54°23' E 018°43'0 0.0
2017-Aug-16 10:59N 54°23' E 018°43'0 0.0
2017-Aug-16 10:29N 54°23' E 018°43'0 0.0
2017-Aug-16 09:59N 54°23' E 018°43'0 0.0
2017-Aug-16 09:29N 54°23' E 018°43'0 0.0
2017-Aug-16 08:59N 54°23' E 018°43'0 0.0
2017-Aug-16 08:29N 54°23' E 018°43'0 0.0
2017-Aug-16 07:59N 54°23' E 018°43'0 0.0
2017-Aug-16 07:29N 54°23' E 018°43'0 0.0
2017-Aug-16 06:59N 54°23' E 018°43'0 0.0
2017-Aug-16 06:29N 54°23' E 018°43'0 0.0
2017-Aug-16 05:59N 54°23' E 018°43'0 0.0
2017-Aug-16 05:29N 54°23' E 018°43'0 0.0
2017-Aug-16 04:59N 54°23' E 018°43'0 0.0
2017-Aug-16 04:29N 54°23' E 018°43'0 0.0
2017-Aug-16 03:59N 54°23' E 018°43'0 0.0
2017-Aug-16 03:29N 54°23' E 018°43'0 0.0
2017-Aug-16 02:59N 54°23' E 018°43'0 0.0
2017-Aug-16 02:29N 54°23' E 018°43'0 0.0
2017-Aug-16 01:59N 54°23' E 018°43'0 0.0
2017-Aug-16 01:29N 54°23' E 018°43'0 0.0
2017-Aug-16 00:59N 54°23' E 018°43'0 0.0
2017-Aug-16 00:29N 54°23' E 018°43'0 0.0
2017-Aug-15 23:59N 54°23' E 018°43'0 0.0
2017-Aug-15 23:29N 54°23' E 018°43'0 0.0
2017-Aug-15 22:59N 54°23' E 018°43'0 0.0
2017-Aug-15 22:29N 54°23' E 018°43'0 0.0
2017-Aug-15 21:59N 54°23' E 018°43'0 0.0
2017-Aug-15 21:29N 54°23' E 018°43'0 0.0
2017-Aug-15 20:59N 54°23' E 018°43'0 0.0
2017-Aug-15 20:29N 54°23' E 018°43'0 0.0
2017-Aug-15 19:59N 54°23' E 018°43'0 0.0
2017-Aug-15 19:29N 54°23' E 018°43'0 0.0
2017-Aug-15 18:59N 54°23' E 018°43'0 0.0
2017-Aug-15 18:29N 54°23' E 018°43'0 0.5
2017-Aug-15 18:00N 54°23' E 018°43'2 3.7
2017-Aug-15 17:30N 54°24' E 018°46'5 9.3
2017-Aug-15 17:00N 54°26' E 018°53'4 8.4
2017-Aug-15 16:30N 54°29' E 018°58'611.9
2017-Aug-15 16:00N 54°34' E 019°03'713.2
2017-Aug-15 15:30N 54°41' E 019°02'714.0
2017-Aug-15 15:00N 54°47' E 018°55'714.1
2017-Aug-15 14:30N 54°51' E 018°46'714.0
2017-Aug-15 14:00N 54°56' E 018°36'714.0
2017-Aug-15 13:30N 54°57' E 018°24'714.4
2017-Aug-15 13:00N 54°56' E 018°12'714.5
2017-Aug-15 12:30N 54°55' E 017°60'714.3
2017-Aug-15 12:00N 54°54' E 017°47'9515.8
2017-Aug-15 06:00N 54°36' E 015°06'633.3 190 / 91023.510.8 21.019.417.6
2017-Aug-15 05:49N 54°40' E 015°14'514.4
2017-Aug-15 05:30N 54°39' E 015°06'1214.4
2017-Aug-15 04:40N 54°38' E 014°46'214.6
2017-Aug-15 04:31N 54°37' E 014°42'714.7
2017-Aug-15 04:01N 54°36' E 014°29'714.3
2017-Aug-15 03:30N 54°37' E 014°17'714.6
2017-Aug-15 03:00N 54°39' E 014°05'815.2
2017-Aug-15 02:30N 54°41' E 013°52'714.8
2017-Aug-15 02:00N 54°44' E 013°40'814.9
2017-Aug-15 01:30N 54°45' E 013°27'715.0
2017-Aug-15 01:00N 54°46' E 013°14'714.7
2017-Aug-15 00:31N 54°46' E 013°02'714.6
2017-Aug-15 00:01N 54°46' E 012°49'612.4
2017-Aug-14 23:30N 54°44' E 012°39'714.0
2017-Aug-14 23:00N 54°41' E 012°28'815.1
2017-Aug-14 22:30N 54°36' E 012°18'815.3
2017-Aug-14 22:00N 54°29' E 012°13'713.2
2017-Aug-14 21:30N 54°25' E 012°04'714.8
2017-Aug-14 21:00N 54°25' E 011°52'714.3
2017-Aug-14 20:30N 54°27' E 011°40'714.8
2017-Aug-14 20:00N 54°30' E 011°28'714.6
2017-Aug-14 19:30N 54°33' E 011°17'714.3
2017-Aug-14 19:00N 54°35' E 011°05'714.7
2017-Aug-14 18:30N 54°38' E 010°53'713.4
2017-Aug-14 18:00N 54°43' E 010°47'815.1
2017-Aug-14 17:30N 54°51' E 010°50'714.6
2017-Aug-14 17:00N 54°57' E 010°55'714.4
2017-Aug-14 16:30N 55°04' E 010°60'713.4
2017-Aug-14 16:00N 55°11' E 011°02'612.6
2017-Aug-14 15:30N 55°17' E 011°03'815.0
2017-Aug-14 15:00N 55°24' E 010°59'815.3
2017-Aug-14 14:30N 55°31' E 010°52'815.4
2017-Aug-14 13:59N 55°38' E 010°47'815.4
2017-Aug-14 13:29N 55°46' E 010°48'715.2
2017-Aug-14 13:00N 55°53' E 010°49'714.5
2017-Aug-14 12:30N 55°57' E 010°60'814.9
2017-Aug-14 11:59N 56°04' E 011°07'714.8
2017-Aug-14 11:30N 56°10' E 011°14'917.0
2017-Aug-14 10:59N 56°17' E 011°22'1016.4
2017-Aug-14 10:25N 56°26' E 011°30'1117.0
2017-Aug-14 09:48N 56°35' E 011°40'716.6
2017-Aug-14 09:22N 56°41' E 011°46'2515.9
2017-Aug-14 07:48N 57°05' E 011°38'617.0
2017-Aug-14 07:29N 57°10' E 011°34'816.8
2017-Aug-14 07:00N 57°18' E 011°30'917.1
2017-Aug-14 06:30N 57°26' E 011°24'917.1
2017-Aug-14 06:00N 57°32' E 011°13'917.4
2017-Aug-14 05:30N 57°38' E 011°02'917.7
2017-Aug-14 05:00N 57°44' E 010°50'917.2
2017-Aug-14 04:29N 57°47' E 010°34'918.4
2017-Aug-14 04:00N 57°46' E 010°18'917.9
2017-Aug-14 03:30N 57°45' E 010°01'917.5
2017-Aug-14 03:00N 57°43' E 009°45'3017.1
2017-Aug-14 01:15N 57°31' E 008°54'417.3
2017-Aug-14 01:00N 57°29' E 008°48'917.3
2017-Aug-14 00:30N 57°24' E 008°34'917.4
2017-Aug-14 00:00N 57°19' E 008°21'917.3
2017-Aug-13 23:29N 57°11' E 008°13'9417.4
2017-Aug-13 18:05N 55°49' E 006°49'117.2
2017-Aug-13 18:00N 55°48' E 006°48'1200134983.8
2017-Aug-13 18:00N 35°48' E 006°48'11901827.6 320 / 151024.027.0 20.019.217.2
2017-Aug-13 17:20N 55°38' E 006°38'717.2
2017-Aug-13 16:55N 55°32' E 006°32'817.1
2017-Aug-13 16:27N 55°24' E 006°26'  

Dump ship's entire track history